Time;durP1;ratioP1;P1;durP2;ratioP2;P2;SDS_P1;SDS_P2;PMS_P1;PMS_P2;Temp;Humidity;BMP_temperature;BMP_pressure;BME280_temperature;BME280_humidity;BME280_pressure;Samples;Min_cycle;Max_cycle;Signal;HPM_P1;HPM_P2
2021/05/29 00:02:29;;;;;;;0.80;0.80;;;21.00;63.10;;;;;;5147257;27;20533;-42
2021/05/29 00:05:00;;;;;;;1.10;0.90;;;21.10;61.20;;;;;;5147248;27;20423;-43
2021/05/29 00:07:31;;;;;;;2.30;1.23;;;21.20;62.00;;;;;;5145561;27;20469;-42
2021/05/29 00:10:01;;;;;;;1.03;0.90;;;21.30;62.00;;;;;;5147346;27;20513;-43
2021/05/29 00:12:32;;;;;;;0.77;0.77;;;21.20;60.90;;;;;;5145768;27;20551;-42
2021/05/29 00:15:04;;;;;;;1.63;0.70;;;21.20;60.50;;;;;;5145575;27;20476;-42
2021/05/29 00:17:34;;;;;;;1.00;1.00;;;21.30;60.40;;;;;;5143209;27;20468;-41
2021/05/29 00:20:05;;;;;;;2.93;1.60;;;21.20;59.00;;;;;;5146228;27;20505;-42
2021/05/29 00:22:36;;;;;;;2.17;1.10;;;21.00;59.70;;;;;;5146358;27;20472;-42
2021/05/29 00:25:08;;;;;;;1.83;1.13;;;20.80;60.30;;;;;;5145894;27;20943;-42
2021/05/29 00:27:38;;;;;;;0.77;0.77;;;20.90;59.90;;;;;;5130616;27;20974;-43
2021/05/29 00:30:12;;;;;;;1.40;1.20;;;20.90;61.40;;;;;;5144591;27;20817;-42
2021/05/29 00:32:43;;;;;;;3.43;0.80;;;20.80;60.90;;;;;;5139036;27;20459;-42
2021/05/29 00:35:13;;;;;;;1.10;1.00;;;20.80;62.90;;;;;;5146350;27;20476;-42
2021/05/29 00:37:44;;;;;;;1.03;0.87;;;20.70;62.40;;;;;;5141039;27;20454;-42
2021/05/29 00:40:15;;;;;;;0.60;0.60;;;20.70;63.00;;;;;;5143750;27;20556;-42
2021/05/29 00:42:46;;;;;;;1.40;0.70;;;20.70;60.80;;;;;;5141539;27;20451;-42
2021/05/29 00:45:18;;;;;;;0.83;0.80;;;20.50;62.00;;;;;;5145418;27;20457;-42
2021/05/29 00:47:48;;;;;;;0.60;0.60;;;20.40;63.50;;;;;;5144365;27;20415;-42
2021/05/29 00:50:19;;;;;;;1.63;1.13;;;20.30;63.30;;;;;;5143198;27;20478;-42
2021/05/29 00:53:27;;;;;;;2.80;1.10;;;20.20;63.50;;;;;;5146235;27;20444;-42
2021/05/29 00:56:00;;;;;;;1.10;1.00;;;20.10;65.60;;;;;;5140635;27;20509;-41
2021/05/29 00:58:30;;;;;;;1.50;0.80;;;20.00;66.20;;;;;;5146233;27;20439;-42
2021/05/29 01:01:04;;;;;;;1.07;0.97;;;19.90;67.90;;;;;;5143874;27;20583;-42
2021/05/29 01:03:36;;;;;;;1.33;0.87;;;19.90;66.90;;;;;;5134864;27;20445;-41
2021/05/29 01:06:07;;;;;;;0.77;0.77;;;19.90;67.30;;;;;;5145879;27;20457;-42
2021/05/29 01:08:38;;;;;;;0.80;0.60;;;19.80;68.20;;;;;;5146002;27;20476;-42
2021/05/29 01:11:09;;;;;;;0.80;0.80;;;19.70;67.20;;;;;;5144205;27;20449;-41
2021/05/29 01:13:40;;;;;;;0.80;0.80;;;19.70;68.90;;;;;;5146298;27;20499;-42
2021/05/29 01:16:18;;;;;;;1.67;0.80;;;19.60;68.60;;;;;;5144464;27;20472;-42
2021/05/29 01:18:48;;;;;;;1.20;0.90;;;19.50;69.10;;;;;;5145786;27;20516;-42
2021/05/29 01:21:19;;;;;;;0.90;0.80;;;19.40;70.10;;;;;;5145514;27;20834;-42
2021/05/29 01:23:54;;;;;;;0.73;0.73;;;19.40;69.20;;;;;;5146264;27;20470;-42
2021/05/29 01:26:24;;;;;;;1.50;1.00;;;19.30;69.60;;;;;;5145270;27;20455;-42
2021/05/29 01:28:56;;;;;;;1.20;1.20;;;19.30;71.60;;;;;;5145729;27;20445;-42
2021/05/29 01:31:28;;;;;;;1.00;1.00;;;19.30;71.60;;;;;;5144795;27;20452;-42
2021/05/29 01:34:00;;;;;;;0.80;0.80;;;19.20;71.10;;;;;;5134779;27;20449;-42
2021/05/29 01:36:31;;;;;;;2.00;1.20;;;19.10;70.80;;;;;;5144227;27;20452;-42
2021/05/29 01:39:06;;;;;;;1.17;0.90;;;19.10;72.40;;;;;;5144910;27;20476;-42
2021/05/29 01:41:37;;;;;;;1.23;0.80;;;19.10;73.50;;;;;;5138410;27;20491;-42
2021/05/29 01:44:09;;;;;;;2.23;1.03;;;19.00;73.80;;;;;;5144870;27;20442;-42
2021/05/29 01:46:40;;;;;;;1.00;1.00;;;19.00;74.20;;;;;;5144856;27;20838;-44
2021/05/29 01:49:11;;;;;;;1.00;0.90;;;19.00;73.70;;;;;;5134055;27;20453;-42
2021/05/29 01:51:42;;;;;;;1.27;0.60;;;18.90;74.10;;;;;;5144683;27;20453;-41
2021/05/29 01:54:17;;;;;;;1.37;1.20;;;18.90;74.10;;;;;;5144367;27;20948;-42
2021/05/29 01:56:47;;;;;;;0.97;0.87;;;18.80;75.40;;;;;;5143914;27;20939;-42
2021/05/29 01:59:18;;;;;;;1.20;1.10;;;18.70;76.70;;;;;;5144994;27;20461;-42
2021/05/29 02:01:48;;;;;;;1.17;0.93;;;18.60;77.20;;;;;;5144084;27;20499;-41
2021/05/29 02:04:19;;;;;;;1.13;0.93;;;18.60;77.70;;;;;;5141405;27;20504;-42
2021/05/29 02:06:49;;;;;;;1.07;0.80;;;18.60;77.50;;;;;;5144688;27;20449;-42
2021/05/29 02:09:21;;;;;;;1.57;1.30;;;18.60;77.40;;;;;;5144356;27;20808;-42
2021/05/29 02:11:51;;;;;;;1.47;1.10;;;18.50;78.10;;;;;;5134343;27;20468;-42
2021/05/29 02:14:22;;;;;;;0.60;0.53;;;18.50;79.00;;;;;;5143565;27;20467;-42
2021/05/29 02:16:52;;;;;;;1.33;0.90;;;18.60;78.40;;;;;;5143044;27;20464;-42
2021/05/29 02:19:23;;;;;;;1.70;1.10;;;18.50;77.20;;;;;;5143448;27;20504;-42
2021/05/29 02:21:53;;;;;;;1.30;1.20;;;18.50;77.60;;;;;;5143701;27;20455;-42
2021/05/29 02:24:25;;;;;;;1.20;1.10;;;18.40;77.50;;;;;;5143935;27;20819;-42
2021/05/29 02:26:55;;;;;;;3.33;1.47;;;18.30;79.30;;;;;;5144500;27;20775;-42
2021/05/29 02:29:26;;;;;;;1.20;1.10;;;18.30;79.50;;;;;;5143671;27;20428;-42
2021/05/29 02:31:56;;;;;;;2.00;1.07;;;18.20;79.50;;;;;;5143359;27;20577;-42
2021/05/29 02:34:27;;;;;;;0.80;0.80;;;18.20;79.70;;;;;;5137177;27;20445;-42
2021/05/29 02:36:57;;;;;;;2.10;1.13;;;18.20;79.80;;;;;;5141280;27;20506;-42
2021/05/29 02:39:29;;;;;;;1.53;1.00;;;18.20;79.60;;;;;;5144245;27;20482;-42
2021/05/29 02:42:00;;;;;;;1.87;1.10;;;18.10;81.10;;;;;;5141988;27;20536;-42
2021/05/29 02:44:30;;;;;;;2.90;2.13;;;18.00;81.20;;;;;;5139147;27;20473;-42
2021/05/29 02:47:01;;;;;;;1.70;1.40;;;17.90;81.30;;;;;;5143453;27;20456;-43
2021/05/29 02:49:32;;;;;;;1.27;1.20;;;18.00;81.40;;;;;;5136306;27;20478;-43
2021/05/29 02:52:03;;;;;;;2.50;1.50;;;17.90;82.40;;;;;;5143481;27;20975;-43
2021/05/29 02:54:41;;;;;;;2.17;1.30;;;17.90;82.30;;;;;;5140733;27;20445;-43
2021/05/29 02:57:12;;;;;;;1.00;1.00;;;17.90;81.60;;;;;;5143786;27;20464;-43
2021/05/29 02:59:43;;;;;;;1.60;1.20;;;17.80;81.60;;;;;;5142658;27;20449;-43
2021/05/29 03:02:15;;;;;;;1.00;1.00;;;17.80;82.90;;;;;;5139320;27;20488;-43
2021/05/29 03:04:46;;;;;;;1.07;1.00;;;17.70;82.80;;;;;;5138207;27;20543;-43
2021/05/29 03:07:16;;;;;;;1.40;1.30;;;17.60;83.30;;;;;;5143933;27;20471;-44
2021/05/29 03:09:48;;;;;;;1.80;1.70;;;17.60;83.50;;;;;;5143670;27;20546;-43
2021/05/29 03:12:19;;;;;;;1.17;1.00;;;17.60;82.90;;;;;;5142619;28;20440;-43
2021/05/29 03:14:49;;;;;;;2.10;1.27;;;17.50;82.90;;;;;;5143016;28;20424;-43
2021/05/29 03:17:20;;;;;;;2.17;1.10;;;17.50;82.80;;;;;;5143632;28;20424;-42
2021/05/29 03:19:50;;;;;;;1.43;1.10;;;17.40;82.70;;;;;;5142632;28;20449;-42
2021/05/29 03:22:21;;;;;;;1.90;1.40;;;17.40;82.00;;;;;;5143572;28;20495;-42
2021/05/29 03:24:53;;;;;;;1.37;0.90;;;17.30;82.50;;;;;;5140465;28;20465;-42
2021/05/29 03:27:24;;;;;;;1.33;0.97;;;17.30;82.10;;;;;;5142283;28;20440;-42
2021/05/29 03:29:55;;;;;;;1.57;0.93;;;17.20;82.40;;;;;;5141602;28;20465;-42
2021/05/29 03:32:25;;;;;;;1.03;1.03;;;17.20;82.00;;;;;;5141842;28;20456;-42
2021/05/29 03:34:56;;;;;;;1.40;1.30;;;17.10;82.40;;;;;;5145854;27;20456;-42
2021/05/29 03:37:26;;;;;;;1.60;1.33;;;17.00;83.50;;;;;;5147294;27;20433;-42
2021/05/29 03:39:58;;;;;;;1.90;1.53;;;17.00;84.50;;;;;;5138933;27;20448;-43
2021/05/29 03:42:28;;;;;;;1.67;1.30;;;17.00;84.10;;;;;;5144370;27;20484;-42
2021/05/29 03:44:59;;;;;;;1.30;1.20;;;16.90;85.20;;;;;;5144631;27;20461;-43
2021/05/29 03:47:34;;;;;;;3.40;1.53;;;16.90;85.40;;;;;;5144067;27;20456;-43
2021/05/29 03:50:05;;;;;;;1.67;1.40;;;16.80;86.10;;;;;;5141184;27;20477;-42
2021/05/29 03:52:37;;;;;;;2.10;1.80;;;16.70;86.80;;;;;;5146580;27;20523;-43
2021/05/29 03:55:11;;;;;;;2.80;1.60;;;16.70;87.40;;;;;;5147751;27;20543;-41
2021/05/29 03:57:41;;;;;;;2.80;1.70;;;16.60;88.30;;;;;;5147464;27;20480;-42
2021/05/29 04:00:14;;;;;;;1.67;1.57;;;16.50;89.70;;;;;;5145638;27;20469;-41
2021/05/29 04:02:45;;;;;;;1.70;1.60;;;16.40;89.60;;;;;;5145313;27;20924;-42
2021/05/29 04:05:16;;;;;;;1.60;1.50;;;16.40;90.10;;;;;;5146567;27;20490;-42
2021/05/29 04:07:47;;;;;;;5.53;1.63;;;16.30;90.30;;;;;;5146511;27;20437;-42
2021/05/29 04:10:21;;;;;;;2.07;1.37;;;16.30;90.50;;;;;;5144456;27;20761;-42
2021/05/29 04:12:52;;;;;;;3.67;2.00;;;16.30;90.70;;;;;;5141942;27;20452;-42
2021/05/29 04:15:24;;;;;;;2.70;1.60;;;16.20;91.30;;;;;;5146284;27;20545;-42
2021/05/29 04:17:55;;;;;;;2.00;1.80;;;16.20;91.30;;;;;;5146841;27;20472;-42
2021/05/29 04:20:26;;;;;;;1.83;1.53;;;16.10;91.40;;;;;;5141895;27;20444;-42
2021/05/29 04:22:57;;;;;;;1.97;1.87;;;16.10;91.50;;;;;;5146231;27;20501;-42
2021/05/29 04:25:30;;;;;;;2.30;2.10;;;16.00;92.30;;;;;;5130573;27;20505;-42
2021/05/29 04:28:00;;;;;;;2.37;1.80;;;16.00;92.50;;;;;;5146449;27;20449;-42
2021/05/29 04:30:32;;;;;;;1.87;1.40;;;15.90;92.70;;;;;;5144751;27;21030;-42
2021/05/29 04:33:02;;;;;;;4.30;2.40;;;15.80;93.20;;;;;;5143364;27;20441;-42
2021/05/29 04:35:33;;;;;;;3.97;3.60;;;15.80;93.70;;;;;;5145519;27;20444;-44
2021/05/29 04:38:04;;;;;;;3.17;2.90;;;15.60;94.50;;;;;;5145026;27;20452;-41
2021/05/29 04:40:35;;;;;;;5.23;3.27;;;15.60;95.20;;;;;;5144030;27;20445;-42
2021/05/29 04:43:06;;;;;;;2.80;2.60;;;15.60;95.90;;;;;;5142743;27;20544;-42
2021/05/29 04:45:36;;;;;;;2.67;2.47;;;15.50;97.00;;;;;;5142384;27;20471;-42
2021/05/29 04:48:08;;;;;;;2.90;2.20;;;15.50;97.40;;;;;;5143369;27;20769;-42
2021/05/29 04:53:24;;;;;;;3.50;2.20;;;15.40;98.60;;;;;;5144697;27;20449;-42
2021/05/29 04:55:56;;;;;;;6.23;2.67;;;15.30;99.10;;;;;;5146258;27;20473;-42
2021/05/29 04:58:27;;;;;;;4.17;2.80;;;15.20;99.60;;;;;;5145143;27;20453;-42
2021/05/29 05:00:58;;;;;;;4.03;2.40;;;15.20;99.90;;;;;;5144033;27;20515;-41
2021/05/29 05:03:28;;;;;;;3.50;2.70;;;15.10;99.90;;;;;;5145089;27;20468;-42
2021/05/29 05:05:59;;;;;;;4.30;2.80;;;15.10;99.90;;;;;;5145867;27;20456;-42
2021/05/29 05:08:29;;;;;;;8.77;3.20;;;15.00;99.90;;;;;;5145219;27;20441;-41
2021/05/29 05:11:01;;;;;;;3.67;2.80;;;14.90;99.90;;;;;;5144817;27;20433;-41
2021/05/29 05:13:32;;;;;;;3.00;2.20;;;14.90;99.90;;;;;;5135624;27;20445;-41
2021/05/29 05:16:02;;;;;;;5.33;3.23;;;14.80;99.90;;;;;;5144753;27;20459;-41
2021/05/29 05:18:33;;;;;;;7.20;2.83;;;14.80;99.90;;;;;;5145210;27;20448;-41
2021/05/29 05:21:04;;;;;;;5.90;3.10;;;14.70;99.90;;;;;;5144951;27;20579;-41
2021/05/29 05:23:35;;;;;;;5.20;2.90;;;14.70;99.90;;;;;;5145854;27;20935;-41
2021/05/29 05:26:07;;;;;;;3.30;3.00;;;14.60;99.90;;;;;;5145771;27;20423;-41
2021/05/29 05:28:38;;;;;;;5.70;2.73;;;14.60;99.90;;;;;;5144816;27;20460;-41
2021/05/29 05:31:08;;;;;;;5.03;2.27;;;14.50;99.90;;;;;;5143374;27;20920;-42
2021/05/29 05:33:42;;;;;;;6.83;2.73;;;14.50;99.90;;;;;;5144735;27;20466;-42
2021/05/29 05:36:13;;;;;;;4.50;2.77;;;14.40;99.90;;;;;;5142320;27;20449;-42
2021/05/29 05:38:45;;;;;;;4.63;2.53;;;14.50;99.90;;;;;;5144915;27;20440;-41
2021/05/29 05:41:17;;;;;;;5.47;2.60;;;14.40;99.90;;;;;;5144624;27;20492;-41
2021/05/29 05:43:49;;;;;;;3.70;2.30;;;14.40;99.90;;;;;;5144424;27;20505;-41
2021/05/29 05:46:21;;;;;;;7.20;3.00;;;14.30;99.90;;;;;;5126101;27;20465;-42
2021/05/29 05:48:52;;;;;;;3.80;2.93;;;14.30;99.90;;;;;;5144009;27;20441;-42
2021/05/29 05:51:24;;;;;;;6.10;2.17;;;14.30;99.90;;;;;;5144515;27;20496;-42
2021/05/29 05:53:55;;;;;;;6.43;3.00;;;14.30;99.90;;;;;;5144609;27;20433;-42
2021/05/29 05:56:26;;;;;;;4.97;2.90;;;14.20;99.90;;;;;;5144483;27;20472;-42
2021/05/29 05:58:58;;;;;;;4.27;2.30;;;14.20;99.90;;;;;;5143356;27;20444;-42
2021/05/29 06:01:29;;;;;;;3.30;2.47;;;14.10;99.90;;;;;;5143759;27;20481;-43
2021/05/29 06:03:59;;;;;;;3.33;2.30;;;14.10;99.90;;;;;;5143457;27;20532;-43
2021/05/29 06:06:30;;;;;;;5.77;3.23;;;14.00;99.90;;;;;;5144625;27;20472;-43
2021/05/29 06:09:00;;;;;;;3.83;2.27;;;14.00;99.90;;;;;;5144899;27;20468;-43
2021/05/29 06:11:32;;;;;;;2.37;2.17;;;14.00;99.90;;;;;;5144320;27;20478;-43
2021/05/29 06:19:39;;;;;;;8.53;3.13;;;13.90;99.90;;;;;;5144293;27;20487;-42
2021/05/29 06:22:10;;;;;;;4.43;2.10;;;13.90;99.90;;;;;;5144140;27;20477;-42
2021/05/29 06:24:41;;;;;;;3.90;2.40;;;13.80;99.90;;;;;;5142826;27;20452;-43
2021/05/29 06:27:14;;;;;;;4.33;2.70;;;13.80;99.90;;;;;;5144685;27;20481;-43
2021/05/29 06:29:44;;;;;;;6.30;2.90;;;13.70;99.90;;;;;;5143002;27;20467;-41
2021/05/29 06:32:15;;;;;;;5.00;2.80;;;13.70;99.90;;;;;;5142770;27;20445;-41
2021/05/29 06:34:45;;;;;;;2.73;2.23;;;13.70;99.90;;;;;;5136409;27;20509;-40
2021/05/29 06:37:16;;;;;;;3.53;3.03;;;13.60;99.90;;;;;;5143952;27;20449;-41
2021/05/29 06:39:46;;;;;;;3.53;2.70;;;13.50;99.90;;;;;;5144082;27;20923;-41
2021/05/29 06:42:18;;;;;;;4.50;2.53;;;13.50;99.90;;;;;;5144122;27;20595;-41
2021/05/29 06:44:48;;;;;;;9.90;3.13;;;13.40;99.90;;;;;;5142887;27;20483;-41
2021/05/29 06:47:19;;;;;;;3.10;2.80;;;13.40;99.90;;;;;;5143660;27;20441;-41
2021/05/29 06:49:50;;;;;;;3.40;3.00;;;13.40;99.90;;;;;;5142679;27;20472;-41
2021/05/29 06:52:23;;;;;;;3.87;2.70;;;13.30;99.90;;;;;;5143097;27;20441;-41
2021/05/29 06:55:03;;;;;;;3.73;2.47;;;13.30;99.90;;;;;;5144156;27;20804;-41
2021/05/29 07:00:23;;;;;;;4.10;3.00;;;13.20;99.90;;;;;;5142445;27;20459;-42
2021/05/29 07:02:53;;;;;;;2.97;2.77;;;13.20;99.90;;;;;;5142548;27;20484;-40
2021/05/29 07:05:24;;;;;;;5.70;2.97;;;13.20;99.90;;;;;;5136817;27;20461;-42
2021/05/29 07:07:54;;;;;;;4.90;2.73;;;13.10;99.90;;;;;;5142608;27;20441;-42
2021/05/29 07:10:25;;;;;;;2.87;2.30;;;13.10;99.90;;;;;;5141818;27;20436;-40
2021/05/29 07:12:57;;;;;;;3.90;2.80;;;13.00;99.90;;;;;;5129806;28;20457;-40
2021/05/29 07:15:31;;;;;;;2.63;2.43;;;12.90;99.90;;;;;;5142134;28;20449;-41
2021/05/29 07:18:08;;;;;;;3.37;3.07;;;12.90;99.90;;;;;;5143623;28;20505;-42
2021/05/29 07:20:39;;;;;;;3.63;3.00;;;12.90;99.90;;;;;;5143342;28;20449;-42
2021/05/29 07:23:10;;;;;;;6.97;2.53;;;12.80;99.90;;;;;;5142735;28;20989;-42
2021/05/29 07:25:42;;;;;;;2.77;2.17;;;12.80;99.90;;;;;;5143373;28;20478;-41
2021/05/29 07:28:15;;;;;;;3.17;2.90;;;12.80;99.90;;;;;;5143725;28;20444;-42
2021/05/29 07:30:47;;;;;;;3.43;2.67;;;12.80;99.90;;;;;;5142161;28;20445;-41
2021/05/29 07:33:18;;;;;;;3.63;2.37;;;12.80;99.90;;;;;;5142372;28;20491;-41
2021/05/29 07:35:48;;;;;;;2.57;2.37;;;12.80;99.90;;;;;;5142809;28;20449;-41
2021/05/29 07:38:19;;;;;;;5.83;2.67;;;12.70;99.90;;;;;;5138885;28;20480;-42
2021/05/29 07:40:49;;;;;;;4.27;2.50;;;12.70;99.90;;;;;;5143041;28;20476;-41
2021/05/29 07:43:21;;;;;;;4.40;3.07;;;12.70;99.90;;;;;;5143417;28;20547;-42
2021/05/29 07:45:51;;;;;;;3.53;2.30;;;12.70;99.90;;;;;;5142101;28;20476;-42
2021/05/29 07:48:22;;;;;;;2.40;2.20;;;12.70;99.90;;;;;;5142811;28;20457;-42
2021/05/29 07:51:02;;;;;;;4.33;3.03;;;12.60;99.90;;;;;;5142921;28;20724;-42
2021/05/29 07:53:34;;;;;;;2.67;2.30;;;12.60;99.90;;;;;;5142881;28;20440;-42
2021/05/29 07:56:07;;;;;;;3.00;2.33;;;12.60;99.90;;;;;;5134618;28;20493;-41
2021/05/29 07:58:41;;;;;;;2.53;2.23;;;12.60;99.90;;;;;;5142655;28;20711;-42
2021/05/29 08:01:11;;;;;;;3.08;2.75;;;12.50;99.90;;;;;;5141464;28;20441;-41
2021/05/29 08:03:42;;;;;;;2.90;2.57;;;12.50;99.90;;;;;;5141635;28;20276;-42
2021/05/29 08:06:15;;;;;;;3.63;2.38;;;12.50;99.90;;;;;;5142289;28;20567;-42
2021/05/29 08:08:46;;;;;;;5.10;2.63;;;12.40;99.90;;;;;;5142507;28;20935;-41
2021/05/29 08:11:21;;;;;;;4.07;2.88;;;12.40;99.90;;;;;;5143308;28;20432;-42
2021/05/29 08:13:58;;;;;;;3.43;2.57;;;12.40;99.90;;;;;;5142958;28;20259;-42
2021/05/29 08:16:30;;;;;;;4.93;2.65;;;12.40;99.90;;;;;;5142263;28;20455;-42
2021/05/29 08:19:01;;;;;;;5.75;2.45;;;12.40;99.90;;;;;;5142993;27;20217;-41
2021/05/29 08:21:31;;;;;;;5.72;2.55;;;12.40;99.90;;;;;;5146782;27;20215;-42
2021/05/29 08:24:02;;;;;;;2.58;2.22;;;12.30;99.90;;;;;;5146168;27;20233;-42
2021/05/29 08:26:32;;;;;;;3.90;2.85;;;12.30;99.90;;;;;;5140455;27;20200;-41
2021/05/29 08:29:04;;;;;;;2.33;2.17;;;12.30;99.90;;;;;;5140108;27;20196;-41
2021/05/29 08:31:35;;;;;;;4.68;3.25;;;12.20;99.90;;;;;;5145509;27;20444;-41
2021/05/29 08:34:07;;;;;;;3.42;2.20;;;12.20;99.90;;;;;;5145219;27;20195;-42
2021/05/29 08:36:37;;;;;;;3.08;2.53;;;12.10;99.90;;;;;;5146408;27;20264;-42
2021/05/29 08:39:09;;;;;;;3.00;2.70;;;12.10;99.90;;;;;;5146234;27;20256;-42
2021/05/29 08:41:40;;;;;;;6.68;3.25;;;12.10;99.90;;;;;;5145243;27;20207;-42
2021/05/29 08:44:11;;;;;;;4.05;2.30;;;12.00;99.90;;;;;;5145748;27;20199;-42
2021/05/29 08:46:42;;;;;;;2.63;2.43;;;12.00;99.90;;;;;;5145455;27;20568;-42
2021/05/29 08:49:12;;;;;;;2.40;2.20;;;12.00;99.90;;;;;;5145818;27;20527;-42
2021/05/29 08:51:44;;;;;;;2.93;2.50;;;11.90;99.90;;;;;;5146008;27;20500;-41
2021/05/29 08:54:14;;;;;;;3.92;2.90;;;11.90;99.90;;;;;;5145633;27;20452;-42
2021/05/29 08:56:45;;;;;;;3.88;3.05;;;11.90;99.90;;;;;;5145782;27;20195;-41
2021/05/29 08:59:19;;;;;;;5.40;2.58;;;11.80;99.90;;;;;;5145115;27;20191;-42
2021/05/29 09:01:49;;;;;;;3.50;2.70;;;11.70;99.90;;;;;;5143026;27;20233;-42
2021/05/29 09:04:19;;;;;;;2.42;2.22;;;11.80;99.90;;;;;;5145588;27;20222;-42
2021/05/29 09:06:50;;;;;;;2.40;2.20;;;11.80;99.90;;;;;;5141710;27;20237;-43
2021/05/29 09:09:22;;;;;;;4.78;3.90;;;11.80;99.90;;;;;;5145031;27;20223;-42
2021/05/29 09:11:55;;;;;;;2.65;2.28;;;11.70;99.90;;;;;;5146002;27;20230;-41
2021/05/29 09:14:38;;;;;;;4.50;2.55;;;11.70;99.90;;;;;;5146001;27;20199;-42
2021/05/29 09:17:12;;;;;;;4.85;2.75;;;11.70;99.90;;;;;;5145107;27;20650;-41
2021/05/29 09:20:05;;;;;;;2.75;2.55;;;11.60;99.90;;;;;;5145265;27;20187;-43
2021/05/29 09:22:38;;;;;;;5.10;2.65;;;11.60;99.90;;;;;;5142794;27;20262;-42
2021/05/29 09:25:12;;;;;;;3.70;3.20;;;11.50;99.90;;;;;;5145219;27;20274;-41
2021/05/29 09:27:54;;;;;;;4.35;3.08;;;11.50;99.90;;;;;;5145458;27;20203;-41
2021/05/29 09:30:47;;;;;;;2.88;2.67;;;11.50;99.90;;;;;;5144444;27;20219;-41
2021/05/29 09:33:20;;;;;;;6.68;2.72;;;11.40;99.90;;;;;;5141194;27;20202;-42
2021/05/29 09:35:55;;;;;;;2.80;2.50;;;11.40;99.90;;;;;;5145208;27;20538;-41
2021/05/29 09:38:32;;;;;;;3.75;3.05;;;11.50;99.90;;;;;;5145824;27;20195;-42
2021/05/29 09:41:03;;;;;;;4.10;3.03;;;11.30;99.90;;;;;;5145355;27;20263;-42
2021/05/29 09:43:54;;;;;;;4.13;3.42;;;11.30;99.90;;;;;;5145028;27;20480;-42
2021/05/29 09:46:28;;;;;;;5.57;3.35;;;11.30;99.90;;;;;;5137014;27;20214;-41
2021/05/29 09:49:00;;;;;;;3.22;2.92;;;11.20;99.90;;;;;;5139010;27;20195;-41
2021/05/29 09:51:31;;;;;;;4.20;2.70;;;11.20;99.90;;;;;;5144587;27;20276;-42
2021/05/29 09:54:08;;;;;;;3.33;3.03;;;11.10;99.90;;;;;;5145262;27;20187;-41
2021/05/29 09:56:44;;;;;;;3.53;2.60;;;11.20;99.90;;;;;;5144764;27;20659;-42
2021/05/29 09:59:17;;;;;;;2.90;2.63;;;11.20;99.90;;;;;;5144351;27;20518;-42
2021/05/29 10:01:52;;;;;;;4.32;3.28;;;11.10;99.90;;;;;;5143753;27;20192;-41
2021/05/29 10:04:40;;;;;;;5.43;3.20;;;11.10;99.90;;;;;;5144474;27;20550;-42
2021/05/29 10:07:12;;;;;;;4.53;2.97;;;11.10;99.90;;;;;;5141104;27;20209;-42
2021/05/29 10:09:44;;;;;;;3.10;2.70;;;11.20;99.90;;;;;;5143165;27;20215;-42
2021/05/29 10:12:15;;;;;;;2.55;2.40;;;11.20;99.90;;;;;;5144884;27;20230;-42
2021/05/29 10:14:46;;;;;;;6.43;2.90;;;11.20;99.90;;;;;;5144125;27;20664;-42
2021/05/29 10:17:18;;;;;;;3.15;2.80;;;11.20;99.90;;;;;;5143690;27;20195;-42
2021/05/29 10:19:49;;;;;;;4.28;3.22;;;11.10;99.90;;;;;;5139356;27;20276;-42
2021/05/29 10:22:20;;;;;;;3.20;2.60;;;11.10;99.90;;;;;;5132140;27;20219;-42
2021/05/29 10:24:51;;;;;;;4.63;3.08;;;11.00;99.90;;;;;;5135863;27;20214;-41
2021/05/29 10:27:25;;;;;;;5.75;2.90;;;11.00;99.90;;;;;;5144694;27;20195;-42
2021/05/29 10:29:58;;;;;;;3.15;2.85;;;11.10;99.90;;;;;;5136329;27;20229;-42
2021/05/29 10:32:30;;;;;;;3.78;2.95;;;11.00;99.90;;;;;;5142629;27;20213;-39
2021/05/29 10:35:04;;;;;;;5.95;3.63;;;11.00;99.90;;;;;;5144245;27;20248;-42
2021/05/29 10:37:36;;;;;;;4.32;3.50;;;11.00;99.90;;;;;;5140574;27;20210;-40
2021/05/29 10:40:24;;;;;;;3.00;2.80;;;10.90;99.90;;;;;;5150143;27;20195;-40
2021/05/29 10:43:11;;;;;;;3.83;3.10;;;10.80;99.90;;;;;;5144384;27;20238;-42
2021/05/29 10:45:56;;;;;;;4.50;2.70;;;10.70;99.90;;;;;;5143729;27;20226;-41
2021/05/29 10:48:28;;;;;;;4.72;3.13;;;10.70;99.90;;;;;;5144052;27;20203;-41
2021/05/29 10:51:04;;;;;;;6.15;3.28;;;10.70;99.90;;;;;;5142168;27;20234;-41
2021/05/29 10:53:45;;;;;;;4.53;3.90;;;10.60;99.90;;;;;;5143810;27;20298;-42
2021/05/29 10:56:32;;;;;;;4.40;2.80;;;10.60;99.90;;;;;;5123646;28;20204;-41
2021/05/29 10:59:06;;;;;;;3.70;3.40;;;10.70;99.90;;;;;;5138290;27;20263;-41
2021/05/29 11:02:09;;;;;;;3.80;3.45;;;10.60;99.90;;;;;;5141856;27;20633;-41
2021/05/29 11:04:41;;;;;;;4.05;2.80;;;10.60;99.90;;;;;;5059829;28;20241;-41
2021/05/29 11:07:30;;;;;;;4.93;3.55;;;10.60;99.90;;;;;;5060446;28;20244;-39
2021/05/29 11:10:00;;;;;;;3.88;3.25;;;10.60;99.90;;;;;;5053514;28;20191;-42
2021/05/29 11:12:56;;;;;;;5.85;3.35;;;10.50;99.90;;;;;;5053210;28;20202;-41
2021/05/29 11:15:58;;;;;;;3.92;3.60;;;10.50;99.90;;;;;;5059515;28;20236;-40
2021/05/29 11:18:29;;;;;;;5.38;3.40;;;10.50;99.90;;;;;;5055989;28;20216;-41
2021/05/29 11:21:09;;;;;;;4.13;3.72;;;10.50;99.90;;;;;;5042648;28;20230;-41
2021/05/29 11:23:40;;;;;;;3.90;3.47;;;10.50;99.90;;;;;;5053834;28;20227;-40
2021/05/29 11:26:10;;;;;;;5.35;3.55;;;10.50;99.90;;;;;;5060277;28;20674;-42
2021/05/29 11:28:42;;;;;;;3.78;3.35;;;10.40;99.90;;;;;;5060517;28;20190;-42
2021/05/29 11:31:13;;;;;;;7.32;3.60;;;10.40;99.90;;;;;;5058869;28;20236;-41
2021/05/29 11:33:55;;;;;;;4.32;3.10;;;10.30;99.90;;;;;;5057016;28;20244;-42
2021/05/29 11:36:37;;;;;;;8.20;4.10;;;10.30;99.90;;;;;;5060309;28;20202;-41
2021/05/29 11:39:09;;;;;;;5.07;3.85;;;10.20;99.90;;;;;;5111071;28;20209;-42
2021/05/29 11:41:40;;;;;;;6.47;3.83;;;10.20;99.90;;;;;;5131555;28;20206;-42
2021/05/29 11:44:21;;;;;;;7.43;3.80;;;10.10;99.90;;;;;;5142907;28;20623;-41
2021/05/29 11:46:52;;;;;;;3.83;3.33;;;10.10;99.90;;;;;;5143368;28;20226;-41
2021/05/29 11:49:24;;;;;;;5.75;3.88;;;10.10;99.90;;;;;;5142766;28;20325;-41
2021/05/29 11:52:14;;;;;;;4.57;3.53;;;10.00;99.90;;;;;;5143528;28;20237;-42
2021/05/29 11:54:45;;;;;;;6.90;4.40;;;9.90;99.90;;;;;;5143940;27;20199;-42
2021/05/29 11:57:15;;;;;;;4.30;3.85;;;9.80;99.90;;;;;;5147395;27;20258;-41
2021/05/29 11:59:46;;;;;;;3.95;3.42;;;9.80;99.90;;;;;;5146768;27;20286;-41
2021/05/29 12:02:16;;;;;;;5.20;4.10;;;9.70;99.90;;;;;;5146486;27;20234;-42
2021/05/29 12:04:52;;;;;;;8.40;5.03;;;9.70;99.90;;;;;;5137824;27;20255;-42
2021/05/29 12:07:25;;;;;;;4.10;3.70;;;9.80;99.90;;;;;;5146880;27;20217;-40
2021/05/29 12:09:56;;;;;;;4.55;4.15;;;9.80;99.90;;;;;;5145981;27;20252;-41
2021/05/29 12:12:26;;;;;;;4.97;4.40;;;9.80;99.90;;;;;;5147088;27;20240;-41
2021/05/29 12:14:57;;;;;;;4.65;3.75;;;9.70;99.90;;;;;;5146216;27;20202;-41
2021/05/29 12:17:36;;;;;;;5.75;4.18;;;9.60;99.90;;;;;;5147443;27;20211;-41
2021/05/29 12:20:08;;;;;;;5.07;4.10;;;9.50;99.90;;;;;;5143174;27;20203;-41
2021/05/29 12:22:39;;;;;;;3.70;3.40;;;9.50;99.90;;;;;;5146914;27;20210;-40
2021/05/29 12:25:12;;;;;;;4.93;3.88;;;9.40;99.90;;;;;;5146684;27;20237;-39
2021/05/29 12:27:50;;;;;;;4.75;4.22;;;9.40;99.90;;;;;;5146443;27;20207;-41
2021/05/29 12:30:26;;;;;;;7.22;4.10;;;9.40;99.90;;;;;;5145848;27;20195;-41
2021/05/29 12:32:57;;;;;;;5.55;4.63;;;9.40;99.90;;;;;;5144862;27;20206;-40
2021/05/29 12:35:32;;;;;;;8.75;4.55;;;9.40;99.90;;;;;;5146743;27;20574;-41
2021/05/29 12:38:14;;;;;;;6.50;3.90;;;9.30;99.90;;;;;;5140550;27;20217;-40
2021/05/29 12:40:58;;;;;;;4.80;3.90;;;9.30;99.90;;;;;;5146374;27;20635;-41
2021/05/29 12:43:29;;;;;;;5.03;4.20;;;9.30;99.90;;;;;;5146782;27;20269;-40
2021/05/29 12:46:02;;;;;;;4.32;3.90;;;9.40;99.90;;;;;;5145324;27;20229;-41
2021/05/29 12:48:32;;;;;;;4.45;4.05;;;9.40;99.90;;;;;;5145991;27;20271;-41
2021/05/29 12:51:12;;;;;;;4.40;4.00;;;9.40;99.90;;;;;;5146417;27;20242;-41
2021/05/29 12:53:52;;;;;;;4.97;4.47;;;9.40;99.90;;;;;;5146881;27;20283;-42
2021/05/29 12:56:24;;;;;;;7.25;4.82;;;9.40;99.90;;;;;;5146606;27;20199;-41
2021/05/29 12:59:05;;;;;;;5.57;4.90;;;9.30;99.90;;;;;;5146139;27;20200;-41
2021/05/29 13:01:56;;;;;;;5.00;4.50;;;9.30;99.90;;;;;;5140672;27;20214;-41
2021/05/29 13:07:26;;;;;;;5.75;4.90;;;9.40;99.90;;;;;;5124986;28;20200;-39
2021/05/29 13:10:04;;;;;;;4.95;4.53;;;9.40;99.90;;;;;;5125956;28;20211;-40
2021/05/29 13:12:35;;;;;;;6.50;4.40;;;9.30;99.90;;;;;;5138462;27;20202;-41
2021/05/29 13:15:17;;;;;;;7.85;5.30;;;9.40;99.90;;;;;;5125184;28;20230;-40
2021/05/29 13:17:47;;;;;;;5.30;4.78;;;9.40;99.90;;;;;;5129744;27;20196;-41
2021/05/29 13:20:21;;;;;;;5.35;4.85;;;9.40;99.90;;;;;;5146154;27;20233;-41
2021/05/29 13:23:00;;;;;;;6.10;5.07;;;9.40;99.90;;;;;;5145573;27;20195;-40
2021/05/29 13:25:40;;;;;;;5.25;4.75;;;9.40;99.90;;;;;;5146070;27;20251;-41
2021/05/29 13:28:13;;;;;;;5.93;4.47;;;9.40;99.90;;;;;;5145686;27;20273;-39
2021/05/29 13:30:47;;;;;;;5.47;4.97;;;9.40;99.90;;;;;;5145149;27;20207;-41
2021/05/29 13:33:19;;;;;;;8.13;5.25;;;9.40;99.90;;;;;;5144530;27;20646;-40